Metar Cercanos

 

LEPA - Palma De Mallorc, Spain
Distance from station: ONO 38km
Actualización: Thu, 07-Jul-2022 4:00am CEST
Despejado
Despejado
 Viento del varies
Viento: varies 2 km/h
Temperatura: 22°C
Rocío: 17°C
Humedad: 73%
Barómetro: 1019 hPa
Resumen: Despejado
Visibility: greater than 10 km
2022/07/07 02:00 LEPA 070200Z VRB01KT CAVOK 22/17 Q1019 NOSIG
LEMH - Mahon/Menorca Is, Spain
Distance from station: ENE 105km
Actualización: Thu, 07-Jul-2022 4:18am CEST
unable to load LEMH data RC=
unable to load LEMH data RC=
 
 
LEIB - Ibiza/Es Codola, Spain
Distance from station: OSO 165km
Actualización: Thu, 07-Jul-2022 4:18am CEST
unable to load LEIB data RC=
unable to load LEIB data RC=
 
LEBL - Barcelona Airpor, Spain
Distance from station: NNO 225km
Actualización: Thu, 07-Jul-2022 4:00am CEST
Few Clouds
Few Clouds
 Viento del NNO
Viento: NNO 26 km/h
Temperatura: 22°C
Rocío: 16°C
Humedad: 69%
Barómetro: 1019 hPa
Clouds: Few Clouds
Visibility: 10 km
Cloud details: Few Clouds 1067 m
2022/07/07 02:00 LEBL 070200Z 33014KT 300V360 9999 FEW035 22/16 Q1019 NOSIG
 
LEVC - Valencia (civ/Mi, Spain
Distance from station: NO 188km
Actualización: Thu, 07-Jul-2022 4:00am CEST
Despejado
Despejado
 Viento del O
Viento: O 6 km/h
Temperatura: 21°C
Rocío: 16°C
Humedad: 73%
Barómetro: 1021 hPa
Resumen: Despejado
Visibility: greater than 10 km
2022/07/07 02:00 LEVC 070200Z 27003KT CAVOK 21/16 Q1021 NOSIG
LEGE - Gerona/Costa Bra, Spain
Distance from station: N 276km
Actualización: Thu, 07-Jul-2022 4:00am CEST
Muy nuboso
Muy nuboso
 Viento del NO
Viento: NO 6 km/h
Temperatura: 19°C
Rocío: 17°C
Humedad: 88%
Barómetro: 1020 hPa
Clouds: Muy nuboso
Visibility: 10 km
Cloud details: Muy nuboso 2743 m
2022/07/07 02:00 LEGE 070200Z 31003KT 270V350 9999 BKN090 19/17 Q1020
 
LEAL - Alicante/El Alte, Spain
Distance from station: OSO 344km
Actualización: Thu, 07-Jul-2022 4:00am CEST
Despejado
Despejado
 Viento del O
Viento: O 6 km/h
Temperatura: 23°C
Rocío: 19°C
Humedad: 78%
Barómetro: 1020 hPa
Resumen: Despejado
Visibility: greater than 10 km
2022/07/07 02:00 LEAL 070200Z 28003KT 260V320 CAVOK 23/19 Q1020 NOSIG
LEAM - Almeria Airport, Spain
Distance from station: SSO 56km
Actualización: Thu, 07-Jul-2022 4:18am CEST
unable to load LEAM data RC=
unable to load LEAM data RC=
 
 
LEZG - Zaragoza (mil/Ci, Spain
Distance from station: NO 431km
Actualización: Thu, 07-Jul-2022 4:00am CEST
Few Clouds
Few Clouds
 Viento del ONO
Viento: ONO 31 km/h
Temperatura: 19°C
Rocío: 13°C
Humedad: 68%
Barómetro: 1024 hPa
Clouds: Few Clouds
Visibility: 10 km
Cloud details: Few Clouds 1829 m
2022/07/07 02:00 LEZG 070200Z 30017KT 9999 FEW060 19/13 Q1024
LEMD - Madrid/Barajas, Spain
Distance from station: ONO 234km
Actualización: Thu, 07-Jul-2022 4:00am CEST
Despejado
Despejado
 Viento del NNE
Viento: NNE 7 km/h
Temperatura: 19°C
Rocío: 11°C
Humedad: 60%
Barómetro: 1025 hPa
Resumen: Despejado
Visibility: greater than 10 km
2022/07/07 02:00 LEMD 070200Z 02004KT 320V080 CAVOK 19/11 Q1025 NOSIG
 
LEGR - Granada Airport, Spain
Distance from station: OSO 62km
Actualización: Thu, 07-Jul-2022 4:00am CEST
Despejado
Despejado
 Viento del OSO
Viento: OSO 4 km/h
Temperatura: 19°C
Rocío: 7°C
Humedad: 46%
Barómetro: 1022 hPa
Resumen: Despejado
Visibility: greater than 10 km
2022/07/07 02:00 LEGR 070200Z AUTO 25002KT CAVOK 19/07 Q1022
LEMG - Malaga (civ/Mil), Spain
Distance from station: OSO 227km
Actualización: Thu, 07-Jul-2022 4:18am CEST
unable to load LEMG data RC=
unable to load LEMG data RC=
 
 
LEZL - Sevilla (civ/Mil, Spain
Distance from station: S 318km
Actualización: Thu, 07-Jul-2022 4:00am CEST
Despejado
Despejado
 Viento del SSE
Viento: SSE 6 km/h
Temperatura: 22°C
Rocío: 15°C
Humedad: 65%
Barómetro: 1018 hPa
Resumen: Despejado
Visibility: greater than 10 km
2022/07/07 02:00 LEZL 070200Z AUTO 16003KT 130V190 CAVOK 22/15 Q1018
LEVT - Vitoria, Spain
Distance from station: NO 226km
Actualización: Thu, 07-Jul-2022 4:18am CEST
unable to load LEVT data RC=
unable to load LEVT data RC=
 
 
LEBB - Bilbao/Sondica, Spain
Distance from station: NNO 235km
Actualización: Thu, 07-Jul-2022 4:19am CEST
unable to load LEBB data RC=
unable to load LEBB data RC=
 
LESO - San Sebastian/Fu, Spain
Distance from station: N 231km
Actualización: Thu, 07-Jul-2022 4:00am CEST
Muy nuboso
Muy nuboso
 Viento del SO
Viento: SO 13 km/h
Temperatura: 20°C
Rocío: 18°C
Humedad: 88%
Barómetro: 1027 hPa
Clouds: Muy nuboso
Visibility: 10 km
Cloud details: Muy nuboso 457 m
2022/07/07 02:00 LESO 070200Z AUTO 23007KT 200V270 9999 BKN015 20/18 Q1027
 
LEVD - Valladolid(Mil/C, Spain
Distance from station: ONO 239km
Actualización: Thu, 07-Jul-2022 4:00am CEST
Despejado
Despejado
 Viento del ENE
Viento: ENE 22 km/h
Temperatura: 13°C
Rocío: 9°C
Humedad: 77%
Barómetro: 1027 hPa
Resumen: Despejado
Visibility: greater than 10 km
2022/07/07 02:00 LEVD 070200Z AUTO 06012KT CAVOK 13/09 Q1027
LESA - Salamanca (civ/M, Spain
Distance from station: ONO 349km
Actualización: Thu, 07-Jul-2022 4:19am CEST
unable to load LESA data RC=
unable to load LESA data RC=
 
 
LEXJ - Santander/Paraya, Spain
Distance from station: NNO 247km
Actualización: Thu, 07-Jul-2022 4:00am CEST
Despejado
Despejado
 Viento del SO
Viento: SO 7 km/h
Temperatura: 17°C
Rocío: 16°C
Humedad: 94%
Barómetro: 1028 hPa
Resumen: Despejado
Visibility: greater than 10 km
2022/07/07 02:00 LEXJ 070200Z AUTO 23004KT CAVOK 17/16 Q1028
LEAS - Asturias/Aviles, Spain
Distance from station: NO 214km
Actualización: Thu, 07-Jul-2022 4:19am CEST
unable to load LEAS data RC=
unable to load LEAS data RC=
 
 
LECO - La Coruna/Alvedr, Spain
Distance from station: ONO 222km
Actualización: Thu, 07-Jul-2022 4:19am CEST
unable to load LECO data RC=
unable to load LECO data RC=
 
LEVX - Vigo/Peinador, Spain
Distance from station: O 214km
Actualización: Thu, 07-Jul-2022 4:19am CEST
unable to load LEVX data RC=
unable to load LEVX data RC=